createdAt,value
2022-09-16T00:00:47.277Z,413.23
2022-09-16T00:03:35.404Z,421.45
2022-09-16T00:06:26.477Z,403.45
2022-09-16T00:09:14.416Z,417.30
2022-09-16T00:12:02.545Z,397.98
2022-09-16T00:14:50.470Z,423.00
2022-09-16T00:17:38.849Z,399.80
2022-09-16T00:20:26.771Z,432.00
2022-09-16T00:23:15.984Z,391.73
2022-09-16T00:26:05.184Z,416.10
2022-09-16T00:28:53.098Z,381.20
2022-09-16T00:31:41.139Z,419.65
2022-09-16T00:34:29.048Z,419.98
2022-09-16T00:37:16.929Z,423.42
2022-09-16T00:40:07.469Z,394.70
2022-09-16T00:42:55.444Z,398.70
2022-09-16T00:45:46.214Z,406.77
2022-09-16T00:48:35.402Z,410.42
2022-09-16T00:51:25.308Z,415.38
2022-09-16T00:54:13.282Z,391.38
2022-09-16T00:57:04.770Z,377.48
2022-09-16T00:59:55.535Z,377.98
2022-09-16T01:02:45.631Z,409.02
2022-09-16T01:05:34.850Z,379.77
2022-09-16T01:08:22.807Z,393.88
2022-09-16T01:11:10.710Z,417.45
2022-09-16T01:14:21.646Z,400.55
2022-09-16T01:17:14.787Z,412.40
2022-09-16T01:20:38.244Z,384.20
2022-09-16T01:23:54.671Z,389.92
2022-09-16T01:27:21.538Z,389.42
2022-09-16T01:30:22.298Z,368.30
2022-09-16T01:33:19.886Z,380.42
2022-09-16T01:36:23.419Z,398.05
2022-09-16T01:39:23.264Z,398.17
2022-09-16T01:42:22.696Z,399.38
2022-09-16T01:45:18.517Z,412.70
2022-09-16T01:48:17.225Z,379.63
2022-09-16T01:51:13.341Z,399.45
2022-09-16T01:54:07.908Z,397.85
2022-09-16T01:57:03.004Z,410.85
2022-09-16T01:59:55.271Z,423.30
2022-09-16T02:02:48.120Z,391.48
2022-09-16T02:05:46.028Z,411.45
2022-09-16T02:08:39.078Z,404.85
2022-09-16T02:11:27.260Z,418.73
2022-09-16T02:14:19.130Z,411.67
2022-09-16T02:17:10.039Z,393.20
2022-09-16T02:20:03.709Z,406.45
2022-09-16T02:22:58.828Z,414.00
2022-09-16T02:25:50.445Z,427.40
2022-09-16T02:28:43.442Z,414.65
2022-09-16T02:31:36.180Z,398.77
2022-09-16T02:34:29.646Z,419.70
2022-09-16T02:37:20.817Z,404.13
2022-09-16T02:40:15.669Z,413.77
2022-09-16T02:43:04.439Z,379.05
2022-09-16T02:45:59.941Z,423.90
2022-09-16T02:48:57.175Z,435.52
2022-09-16T02:51:55.759Z,409.35
2022-09-16T02:54:51.580Z,434.40
2022-09-16T02:57:41.659Z,408.90
2022-09-16T03:00:33.614Z,410.08
2022-09-16T03:03:22.105Z,387.88
2022-09-16T03:06:19.741Z,384.23
2022-09-16T03:09:10.791Z,411.38
2022-09-16T03:12:17.871Z,395.25
2022-09-16T03:15:29.140Z,389.23
2022-09-16T03:18:28.774Z,385.90
2022-09-16T03:21:22.221Z,398.85
2022-09-16T03:24:16.033Z,387.00
2022-09-16T03:27:10.114Z,402.45
2022-09-16T03:30:04.142Z,390.95
2022-09-16T03:32:57.649Z,399.25
2022-09-16T03:35:49.197Z,393.80
2022-09-16T03:38:39.489Z,402.02
2022-09-16T03:41:29.528Z,405.63
2022-09-16T03:44:17.437Z,396.98
2022-09-16T03:47:05.797Z,406.25
2022-09-16T03:49:55.036Z,397.25
2022-09-16T03:52:42.978Z,423.90
2022-09-16T03:55:30.864Z,421.08
2022-09-16T03:58:18.775Z,416.20
2022-09-16T04:01:06.696Z,413.63
2022-09-16T04:03:54.602Z,402.13
2022-09-16T04:06:43.873Z,412.02
2022-09-16T04:09:31.729Z,421.58
2022-09-16T04:12:19.745Z,411.35
2022-09-16T04:15:08.442Z,405.20
2022-09-16T04:17:56.665Z,411.20
2022-09-16T04:20:45.107Z,402.40
2022-09-16T04:23:34.345Z,408.40
2022-09-16T04:26:22.489Z,409.52
2022-09-16T04:29:10.628Z,423.30
2022-09-16T04:31:58.541Z,414.38
2022-09-16T04:34:46.737Z,415.38
2022-09-16T04:37:34.648Z,408.83
2022-09-16T04:40:23.934Z,396.83
2022-09-16T04:43:11.831Z,417.13
2022-09-16T04:45:59.862Z,427.38
2022-09-16T04:48:48.354Z,426.27
2022-09-16T04:51:36.269Z,434.60
2022-09-16T04:54:24.180Z,414.58
2022-09-16T04:57:13.462Z,424.25
2022-09-16T05:00:01.625Z,400.20
2022-09-16T05:02:49.780Z,389.08
2022-09-16T05:05:37.641Z,391.35
2022-09-16T05:08:25.534Z,385.23
2022-09-16T05:11:15.833Z,413.73
2022-09-16T05:14:07.209Z,391.65
2022-09-16T05:16:55.099Z,411.90
2022-09-16T05:19:42.989Z,389.88
2022-09-16T05:22:30.973Z,379.17
2022-09-16T05:25:19.130Z,390.00
2022-09-16T05:28:07.075Z,404.45
2022-09-16T05:30:56.658Z,400.70
2022-09-16T05:33:47.422Z,413.42
2022-09-16T05:36:37.430Z,392.33
2022-09-16T05:39:26.400Z,404.10
2022-09-16T05:42:14.392Z,398.05
2022-09-16T05:45:02.399Z,395.48
2022-09-16T05:47:52.373Z,397.67
2022-09-16T05:50:40.201Z,387.00
2022-09-16T05:53:30.009Z,401.23
2022-09-16T05:56:20.134Z,403.55
2022-09-16T05:59:08.015Z,411.48
2022-09-16T06:01:56.703Z,397.60
2022-09-16T06:04:46.087Z,407.33
2022-09-16T06:07:33.986Z,398.75
2022-09-16T06:10:21.865Z,398.52
2022-09-16T06:13:09.799Z,392.50
2022-09-16T06:15:58.406Z,391.17
2022-09-16T06:18:46.320Z,395.13
2022-09-16T06:21:35.578Z,388.67
2022-09-16T06:24:23.561Z,419.75
2022-09-16T06:27:11.479Z,397.55
2022-09-16T06:29:59.385Z,415.70
2022-09-16T06:32:47.263Z,400.42
2022-09-16T06:35:36.407Z,405.83
2022-09-16T06:38:25.785Z,391.08
2022-09-16T06:41:14.936Z,391.17
2022-09-16T06:44:03.530Z,395.20
2022-09-16T06:46:51.440Z,388.08
2022-09-16T06:49:39.306Z,381.73
2022-09-16T06:52:28.012Z,397.83
2022-09-16T06:55:17.447Z,388.17
2022-09-16T06:58:05.319Z,402.73
2022-09-16T07:00:53.276Z,396.27
2022-09-16T07:03:43.985Z,410.98
2022-09-16T07:07:04.847Z,393.83
2022-09-16T07:09:41.110Z,407.60
2022-09-16T07:12:30.471Z,416.38
2022-09-16T07:15:18.704Z,388.33
2022-09-16T07:18:06.681Z,367.23
2022-09-16T07:21:01.072Z,361.85
2022-09-16T07:23:49.322Z,352.23
2022-09-16T07:26:37.871Z,365.88
2022-09-16T07:29:27.851Z,388.08
2022-09-16T07:32:15.768Z,392.85
2022-09-16T07:35:04.752Z,399.10
2022-09-16T07:37:53.159Z,401.02
2022-09-16T07:40:41.727Z,420.80
2022-09-16T07:43:30.194Z,413.70
2022-09-16T07:46:20.469Z,405.95
2022-09-16T07:49:10.277Z,439.08
2022-09-16T07:51:58.185Z,412.40
2022-09-16T07:54:47.005Z,434.92
2022-09-16T07:57:34.910Z,413.48
2022-09-16T08:00:23.109Z,390.08
2022-09-16T08:03:12.388Z,392.45
2022-09-16T08:06:01.833Z,365.98
2022-09-16T08:08:52.218Z,369.52
2022-09-16T08:11:40.106Z,365.10
2022-09-16T08:14:27.995Z,386.15
2022-09-16T08:17:16.112Z,336.63
2022-09-16T08:20:07.145Z,328.83
2022-09-16T08:22:57.912Z,313.48
2022-09-16T08:25:47.046Z,334.23
2022-09-16T08:28:45.316Z,328.38
2022-09-16T08:31:39.477Z,312.65
2022-09-16T08:34:27.581Z,308.90
2022-09-16T08:37:16.815Z,319.08
2022-09-16T08:40:06.308Z,290.52
2022-09-16T08:43:04.999Z,312.63
2022-09-16T08:45:57.967Z,320.92
2022-09-16T08:48:54.338Z,301.98
2022-09-16T08:51:42.558Z,305.15
2022-09-16T08:54:38.373Z,300.63
2022-09-16T08:57:32.668Z,280.95
2022-09-16T09:00:20.882Z,313.30
2022-09-16T09:03:18.333Z,314.02
2022-09-16T09:06:19.951Z,295.60
2022-09-16T09:09:20.337Z,316.05
2022-09-16T09:12:16.859Z,315.88
2022-09-16T09:15:14.933Z,300.48
2022-09-16T09:18:21.445Z,307.40
2022-09-16T09:21:21.537Z,311.35
2022-09-16T09:24:24.359Z,337.23
2022-09-16T09:27:16.797Z,325.25
2022-09-16T09:30:14.139Z,305.90
2022-09-16T09:33:41.500Z,288.00
2022-09-16T09:36:37.517Z,281.63
2022-09-16T09:39:40.040Z,257.23
2022-09-16T09:42:32.633Z,264.30
2022-09-16T09:45:27.598Z,282.50
2022-09-16T09:48:20.676Z,243.35
2022-09-16T09:51:17.373Z,248.10
2022-09-16T09:54:17.412Z,260.65
2022-09-16T09:57:11.861Z,261.77
2022-09-16T10:00:07.144Z,248.35
2022-09-16T10:03:05.691Z,239.57
2022-09-16T10:05:53.615Z,254.77
2022-09-16T10:08:46.051Z,240.15
2022-09-16T10:11:34.140Z,237.57
2022-09-16T10:14:30.533Z,230.60
2022-09-16T10:17:20.571Z,238.30
2022-09-16T10:20:35.623Z,226.18
2022-09-16T10:23:29.602Z,221.57
2022-09-16T10:26:22.243Z,240.55
2022-09-16T10:29:17.068Z,241.98
2022-09-16T10:32:09.073Z,236.20
2022-09-16T10:34:58.485Z,225.48
2022-09-16T10:37:51.507Z,241.52
2022-09-16T10:40:41.002Z,244.85
2022-09-16T10:43:31.447Z,257.30
2022-09-16T10:46:20.497Z,242.82
2022-09-16T10:49:12.466Z,258.83
2022-09-16T10:52:10.784Z,245.75
2022-09-16T10:54:58.844Z,234.60
2022-09-16T10:57:47.688Z,228.65
2022-09-16T11:00:45.882Z,237.98
2022-09-16T11:03:54.634Z,235.65
2022-09-16T11:07:01.764Z,203.73
2022-09-16T11:09:58.341Z,212.50
2022-09-16T11:13:12.955Z,207.02
2022-09-16T11:16:24.364Z,215.88
2022-09-16T11:19:19.986Z,242.82
2022-09-16T11:22:21.259Z,222.43
2022-09-16T11:25:39.161Z,224.88
2022-09-16T11:28:46.968Z,212.05
2022-09-16T11:31:44.350Z,214.57
2022-09-16T11:34:44.733Z,200.95
2022-09-16T11:37:39.604Z,200.48
2022-09-16T11:40:35.477Z,200.48
2022-09-16T11:44:02.439Z,189.05
2022-09-16T11:47:02.365Z,184.88
2022-09-16T11:50:07.996Z,193.60
2022-09-16T11:53:27.960Z,188.38
2022-09-16T11:56:25.495Z,192.05
2022-09-16T11:59:21.725Z,216.52
2022-09-16T12:02:24.368Z,268.60
2022-09-16T12:05:19.627Z,276.60
2022-09-16T12:08:22.613Z,315.67
2022-09-16T12:11:19.393Z,344.05
2022-09-16T12:14:15.915Z,351.63
2022-09-16T12:17:10.013Z,344.48
2022-09-16T12:20:00.981Z,360.48
2022-09-16T12:22:54.314Z,396.95
2022-09-16T12:25:46.910Z,442.10
2022-09-16T12:28:38.768Z,424.15
2022-09-16T12:31:31.644Z,429.95
2022-09-16T12:34:24.884Z,430.38
2022-09-16T12:37:28.885Z,406.85
2022-09-16T12:40:24.189Z,417.60
2022-09-16T12:43:28.036Z,389.10
2022-09-16T12:46:44.847Z,404.58
2022-09-16T12:50:02.582Z,407.60
2022-09-16T12:53:35.738Z,382.60
2022-09-16T12:56:39.361Z,381.65
2022-09-16T13:00:04.358Z,399.35
2022-09-16T13:02:54.864Z,411.33
2022-09-16T13:05:47.253Z,424.10
2022-09-16T13:08:35.871Z,423.63
2022-09-16T13:12:16.569Z,422.35
2022-09-16T13:14:39.603Z,377.30
2022-09-16T13:17:30.194Z,395.50
2022-09-16T13:20:21.084Z,365.35
2022-09-16T13:23:16.989Z,362.83
2022-09-16T13:26:07.392Z,347.27
2022-09-16T13:28:57.767Z,335.90
2022-09-16T13:31:48.713Z,311.80
2022-09-16T13:34:36.783Z,325.88
2022-09-16T13:37:27.127Z,320.73
2022-09-16T13:40:22.321Z,338.85
2022-09-16T13:43:14.631Z,306.95
2022-09-16T13:46:08.695Z,325.58
2022-09-16T13:49:05.039Z,326.02
2022-09-16T13:51:53.932Z,333.52
2022-09-16T13:55:09.023Z,380.70
2022-09-16T13:58:07.442Z,409.13
2022-09-16T14:01:05.692Z,388.50
2022-09-16T14:04:02.229Z,370.33
2022-09-16T14:07:08.022Z,365.10
2022-09-16T14:10:01.481Z,383.98
2022-09-16T14:13:01.057Z,392.55
2022-09-16T14:15:52.420Z,389.48
2022-09-16T14:18:46.093Z,391.67
2022-09-16T14:21:34.588Z,396.65
2022-09-16T14:24:22.554Z,438.73
2022-09-16T14:27:20.427Z,440.35
2022-09-16T14:30:16.807Z,438.45
2022-09-16T14:33:07.949Z,406.95
2022-09-16T14:35:57.011Z,445.33
2022-09-16T14:38:49.858Z,427.77
2022-09-16T14:41:40.557Z,421.27
2022-09-16T14:44:36.611Z,447.45
2022-09-16T14:47:47.388Z,440.50
2022-09-16T14:50:40.969Z,391.05
2022-09-16T14:53:36.411Z,419.20
2022-09-16T14:56:26.000Z,415.27
2022-09-16T14:59:15.708Z,425.83
2022-09-16T15:02:07.849Z,424.90
2022-09-16T15:04:58.568Z,419.38
2022-09-16T15:08:09.910Z,415.17
2022-09-16T15:11:00.150Z,407.95
2022-09-16T15:13:48.497Z,414.00
2022-09-16T15:16:43.262Z,399.13
2022-09-16T15:19:35.026Z,409.20
2022-09-16T15:22:24.071Z,404.45
2022-09-16T15:25:21.531Z,415.98
2022-09-16T15:28:17.972Z,427.55
2022-09-16T15:31:07.655Z,418.88
2022-09-16T15:33:56.717Z,416.27
2022-09-16T15:36:45.362Z,413.35
2022-09-16T15:39:35.480Z,415.75
2022-09-16T15:42:24.845Z,382.42
2022-09-16T15:45:17.748Z,393.27
2022-09-16T15:48:12.138Z,353.83
2022-09-16T15:51:05.973Z,353.90
2022-09-16T15:53:57.622Z,362.75
2022-09-16T15:56:54.360Z,349.35
2022-09-16T15:59:48.249Z,352.17
2022-09-16T16:02:41.758Z,343.70
2022-09-16T16:05:32.925Z,362.38
2022-09-16T16:08:40.036Z,362.65
2022-09-16T16:11:28.168Z,374.58
2022-09-16T16:14:16.108Z,395.08
2022-09-16T16:17:15.128Z,394.90
2022-09-16T16:20:03.629Z,381.00
2022-09-16T16:22:53.218Z,357.38
2022-09-16T16:25:41.441Z,403.10
2022-09-16T16:28:29.788Z,394.48
2022-09-16T16:31:19.213Z,403.25
2022-09-16T16:34:08.495Z,406.50
2022-09-16T16:36:56.406Z,429.58
2022-09-16T16:39:45.318Z,404.17
2022-09-16T16:42:33.513Z,423.08
2022-09-16T16:45:22.008Z,415.17
2022-09-16T16:48:10.981Z,398.83
2022-09-16T16:51:03.499Z,407.00
2022-09-16T16:53:52.972Z,397.55
2022-09-16T16:56:41.717Z,404.70
2022-09-16T16:59:29.590Z,419.60
2022-09-16T17:02:17.551Z,413.70
2022-09-16T17:05:06.090Z,416.15
2022-09-16T17:07:55.311Z,424.00
2022-09-16T17:10:44.624Z,400.48
2022-09-16T17:13:32.484Z,393.67
2022-09-16T17:16:22.652Z,410.45
2022-09-16T17:19:11.234Z,371.35
2022-09-16T17:21:59.109Z,381.27
2022-09-16T17:24:48.405Z,380.10
2022-09-16T17:27:36.257Z,387.58
2022-09-16T17:30:24.162Z,369.58
2022-09-16T17:33:12.077Z,388.42
2022-09-16T17:36:04.960Z,376.95
2022-09-16T17:38:57.365Z,396.85
2022-09-16T17:41:48.635Z,379.35
2022-09-16T17:44:36.563Z,357.27
2022-09-16T17:47:24.834Z,372.58
2022-09-16T17:50:12.808Z,363.50
2022-09-16T17:53:00.667Z,351.33
2022-09-16T17:55:48.664Z,377.07
2022-09-16T17:58:39.814Z,345.90
2022-09-16T18:01:28.330Z,362.40
2022-09-16T18:04:16.193Z,349.97
2022-09-16T18:07:04.102Z,370.67
2022-09-16T18:09:52.031Z,356.23
2022-09-16T18:12:39.995Z,350.67
2022-09-16T18:15:29.516Z,347.83
2022-09-16T18:18:18.217Z,349.47
2022-09-16T18:21:08.083Z,342.63
2022-09-16T18:23:57.708Z,362.57
2022-09-16T18:26:45.990Z,335.40
2022-09-16T18:29:33.843Z,349.70
2022-09-16T18:32:23.047Z,348.60
2022-09-16T18:35:12.445Z,338.43
2022-09-16T18:38:00.321Z,342.20
2022-09-16T18:40:48.277Z,328.33
2022-09-16T18:43:37.075Z,331.73
2022-09-16T18:46:27.110Z,359.13
2022-09-16T18:49:18.068Z,341.30
2022-09-16T18:52:05.935Z,326.70
2022-09-16T18:54:53.860Z,340.83
2022-09-16T18:57:41.835Z,330.03
2022-09-16T19:00:29.755Z,332.90
2022-09-16T19:03:17.651Z,335.80
2022-09-16T19:06:07.396Z,346.17
2022-09-16T19:08:55.512Z,333.93
2022-09-16T19:11:44.098Z,334.97
2022-09-16T19:14:31.961Z,349.90
2022-09-16T19:17:19.977Z,334.30
2022-09-16T19:20:08.332Z,335.03
2022-09-16T19:22:57.583Z,335.07
2022-09-16T19:25:45.433Z,343.63
2022-09-16T19:28:33.345Z,338.37
2022-09-16T19:31:21.786Z,310.67
2022-09-16T19:34:10.272Z,328.40
2022-09-16T19:36:58.173Z,325.27
2022-09-16T19:39:47.849Z,344.73
2022-09-16T19:42:35.732Z,345.27
2022-09-16T19:45:27.779Z,358.63
2022-09-16T19:48:15.964Z,323.90
2022-09-16T19:51:03.964Z,336.83
2022-09-16T19:53:53.222Z,336.70
2022-09-16T19:56:45.905Z,343.30
2022-09-16T19:59:36.233Z,317.13
2022-09-16T20:02:24.411Z,336.43
2022-09-16T20:05:13.047Z,343.80
2022-09-16T20:08:00.962Z,356.60
2022-09-16T20:10:48.895Z,327.07
2022-09-16T20:13:38.955Z,334.87
2022-09-16T20:16:30.485Z,332.63
2022-09-16T20:19:20.220Z,321.67
2022-09-16T20:22:08.244Z,336.07
2022-09-16T20:25:12.432Z,319.47
2022-09-16T20:28:04.174Z,302.70
2022-09-16T20:30:53.442Z,326.20
2022-09-16T20:33:41.787Z,324.30
2022-09-16T20:36:31.340Z,330.70
2022-09-16T20:39:19.435Z,332.57
2022-09-16T20:42:07.610Z,337.90
2022-09-16T20:44:55.469Z,341.63
2022-09-16T20:47:44.682Z,318.43
2022-09-16T20:50:32.573Z,318.60
2022-09-16T20:53:20.425Z,335.70
2022-09-16T20:56:11.079Z,316.43
2022-09-16T20:58:59.576Z,329.33
2022-09-16T21:01:48.305Z,312.50
2022-09-16T21:04:37.605Z,336.93
2022-09-16T21:07:25.509Z,321.83
2022-09-16T21:10:13.435Z,301.77
2022-09-16T21:13:01.296Z,316.37
2022-09-16T21:15:56.034Z,311.43
2022-09-16T21:18:44.437Z,318.50
2022-09-16T21:21:33.665Z,324.03
2022-09-16T21:24:21.735Z,313.70
2022-09-16T21:27:10.154Z,329.83
2022-09-16T21:29:58.327Z,304.63
2022-09-16T21:32:46.214Z,309.13
2022-09-16T21:35:34.061Z,298.77
2022-09-16T21:38:24.532Z,301.87
2022-09-16T21:41:15.077Z,284.83
2022-09-16T21:44:03.804Z,292.40
2022-09-16T21:46:51.712Z,303.27
2022-09-16T21:49:40.368Z,311.47
2022-09-16T21:52:28.467Z,299.07
2022-09-16T21:55:17.708Z,310.03
2022-09-16T21:58:05.582Z,292.10
2022-09-16T22:00:53.527Z,305.57
2022-09-16T22:03:43.102Z,289.63
2022-09-16T22:06:31.466Z,305.93
2022-09-16T22:09:19.688Z,314.33
2022-09-16T22:12:08.968Z,306.60
2022-09-16T22:14:56.815Z,290.97
2022-09-16T22:17:46.958Z,300.07
2022-09-16T22:20:38.210Z,298.27
2022-09-16T22:23:26.273Z,296.53
2022-09-16T22:26:16.020Z,307.97
2022-09-16T22:29:06.266Z,287.47
2022-09-16T22:31:54.213Z,284.10
2022-09-16T22:34:42.165Z,287.07
2022-09-16T22:37:30.044Z,286.37
2022-09-16T22:40:18.370Z,297.37
2022-09-16T22:43:06.306Z,302.67
2022-09-16T22:45:55.683Z,283.17
2022-09-16T22:48:44.047Z,275.87
2022-09-16T22:51:32.477Z,291.67
2022-09-16T22:54:20.393Z,294.00
2022-09-16T22:57:08.300Z,288.50
2022-09-16T22:59:56.171Z,298.40
2022-09-16T23:02:45.369Z,281.07
2022-09-16T23:05:33.225Z,291.77
2022-09-16T23:08:21.164Z,294.77
2022-09-16T23:11:11.586Z,288.77
2022-09-16T23:14:00.145Z,268.23
2022-09-16T23:16:48.911Z,287.90
2022-09-16T23:19:38.146Z,284.73
2022-09-16T23:22:26.051Z,308.97
2022-09-16T23:25:13.973Z,295.80
2022-09-16T23:28:02.092Z,281.37
2022-09-16T23:30:50.518Z,282.30
2022-09-16T23:33:38.548Z,270.50
2022-09-16T23:36:29.311Z,280.93
2022-09-16T23:39:17.832Z,312.33
2022-09-16T23:42:05.979Z,273.17
2022-09-16T23:44:53.868Z,291.43
2022-09-16T23:47:41.717Z,276.17
2022-09-16T23:50:29.587Z,273.90
2022-09-16T23:53:18.772Z,297.70
2022-09-16T23:56:07.586Z,274.93
2022-09-16T23:59:00.145Z,281.93
